sensor_id;sensor_type;location;lat;lon;timestamp;P1;durP1;ratioP1;P2;durP2;ratioP2
50128;SDS011;36026;45.478;9.224;2023-10-08T00:02:10;36.58;;;24.55;;
50128;SDS011;36026;45.478;9.224;2023-10-08T00:05:23;34.58;;;24.23;;
50128;SDS011;36026;45.478;9.224;2023-10-08T00:08:25;38.55;;;25.23;;
50128;SDS011;36026;45.478;9.224;2023-10-08T00:11:26;32.60;;;23.52;;
50128;SDS011;36026;45.478;9.224;2023-10-08T00:14:30;36.45;;;25.38;;
50128;SDS011;36026;45.478;9.224;2023-10-08T00:17:32;33.93;;;24.77;;
50128;SDS011;36026;45.478;9.224;2023-10-08T00:20:36;34.13;;;25.00;;
50128;SDS011;36026;45.478;9.224;2023-10-08T00:23:43;35.65;;;24.58;;
50128;SDS011;36026;45.478;9.224;2023-10-08T00:26:52;33.90;;;24.00;;
50128;SDS011;36026;45.478;9.224;2023-10-08T00:29:54;33.67;;;23.17;;
50128;SDS011;36026;45.478;9.224;2023-10-08T00:32:57;40.33;;;24.95;;
50128;SDS011;36026;45.478;9.224;2023-10-08T00:36:00;40.05;;;25.27;;
50128;SDS011;36026;45.478;9.224;2023-10-08T00:39:17;40.28;;;26.77;;
50128;SDS011;36026;45.478;9.224;2023-10-08T00:42:22;35.70;;;25.40;;
50128;SDS011;36026;45.478;9.224;2023-10-08T00:45:25;42.13;;;27.13;;
50128;SDS011;36026;45.478;9.224;2023-10-08T00:48:30;39.45;;;26.67;;
50128;SDS011;36026;45.478;9.224;2023-10-08T00:51:37;40.17;;;24.92;;
50128;SDS011;36026;45.478;9.224;2023-10-08T00:54:42;39.08;;;26.55;;
50128;SDS011;36026;45.478;9.224;2023-10-08T00:57:55;37.50;;;26.98;;
50128;SDS011;36026;45.478;9.224;2023-10-08T01:00:59;44.08;;;28.42;;
50128;SDS011;36026;45.478;9.224;2023-10-08T01:04:00;39.75;;;25.73;;
50128;SDS011;36026;45.478;9.224;2023-10-08T01:07:08;46.33;;;29.35;;
50128;SDS011;36026;45.478;9.224;2023-10-08T01:10:13;43.47;;;27.35;;
50128;SDS011;36026;45.478;9.224;2023-10-08T01:13:19;43.40;;;27.58;;
50128;SDS011;36026;45.478;9.224;2023-10-08T01:16:22;38.97;;;26.52;;
50128;SDS011;36026;45.478;9.224;2023-10-08T01:19:27;47.42;;;29.15;;
50128;SDS011;36026;45.478;9.224;2023-10-08T01:22:30;47.35;;;29.30;;
50128;SDS011;36026;45.478;9.224;2023-10-08T01:25:33;47.53;;;29.85;;
50128;SDS011;36026;45.478;9.224;2023-10-08T01:28:35;52.58;;;30.90;;
50128;SDS011;36026;45.478;9.224;2023-10-08T01:31:38;52.20;;;29.10;;
50128;SDS011;36026;45.478;9.224;2023-10-08T01:34:40;54.33;;;31.10;;
50128;SDS011;36026;45.478;9.224;2023-10-08T01:37:46;46.10;;;29.92;;
50128;SDS011;36026;45.478;9.224;2023-10-08T01:40:49;48.08;;;30.75;;
50128;SDS011;36026;45.478;9.224;2023-10-08T01:43:51;49.45;;;31.33;;
50128;SDS011;36026;45.478;9.224;2023-10-08T01:46:53;50.78;;;30.75;;
50128;SDS011;36026;45.478;9.224;2023-10-08T01:53:09;52.25;;;34.15;;
50128;SDS011;36026;45.478;9.224;2023-10-08T01:56:11;50.35;;;33.13;;
50128;SDS011;36026;45.478;9.224;2023-10-08T01:59:13;50.42;;;33.10;;
50128;SDS011;36026;45.478;9.224;2023-10-08T02:02:16;53.90;;;36.03;;
50128;SDS011;36026;45.478;9.224;2023-10-08T02:05:17;52.38;;;34.88;;
50128;SDS011;36026;45.478;9.224;2023-10-08T02:08:22;54.83;;;35.47;;
50128;SDS011;36026;45.478;9.224;2023-10-08T02:11:24;59.30;;;36.92;;
50128;SDS011;36026;45.478;9.224;2023-10-08T02:14:27;63.78;;;34.33;;
50128;SDS011;36026;45.478;9.224;2023-10-08T02:17:31;54.47;;;33.80;;
50128;SDS011;36026;45.478;9.224;2023-10-08T02:20:33;50.85;;;32.78;;
50128;SDS011;36026;45.478;9.224;2023-10-08T02:23:36;47.75;;;32.28;;
50128;SDS011;36026;45.478;9.224;2023-10-08T02:26:38;53.03;;;30.95;;
50128;SDS011;36026;45.478;9.224;2023-10-08T02:29:40;52.72;;;32.08;;
50128;SDS011;36026;45.478;9.224;2023-10-08T02:32:42;44.60;;;29.88;;
50128;SDS011;36026;45.478;9.224;2023-10-08T02:35:44;45.67;;;29.00;;
50128;SDS011;36026;45.478;9.224;2023-10-08T02:38:47;45.80;;;28.50;;
50128;SDS011;36026;45.478;9.224;2023-10-08T02:44:51;45.63;;;29.98;;
50128;SDS011;36026;45.478;9.224;2023-10-08T02:47:53;46.20;;;28.10;;
50128;SDS011;36026;45.478;9.224;2023-10-08T02:50:55;44.47;;;29.08;;
50128;SDS011;36026;45.478;9.224;2023-10-08T02:54:08;47.53;;;30.70;;
50128;SDS011;36026;45.478;9.224;2023-10-08T02:57:16;46.88;;;30.95;;
50128;SDS011;36026;45.478;9.224;2023-10-08T03:00:20;50.47;;;30.95;;
50128;SDS011;36026;45.478;9.224;2023-10-08T03:03:21;48.17;;;30.77;;
50128;SDS011;36026;45.478;9.224;2023-10-08T03:06:24;50.20;;;31.55;;
50128;SDS011;36026;45.478;9.224;2023-10-08T03:09:27;48.47;;;30.10;;
50128;SDS011;36026;45.478;9.224;2023-10-08T03:12:32;52.00;;;31.30;;
50128;SDS011;36026;45.478;9.224;2023-10-08T03:15:34;43.67;;;29.27;;
50128;SDS011;36026;45.478;9.224;2023-10-08T03:18:46;47.17;;;28.65;;
50128;SDS011;36026;45.478;9.224;2023-10-08T03:21:50;48.17;;;29.58;;
50128;SDS011;36026;45.478;9.224;2023-10-08T03:24:58;49.90;;;30.58;;
50128;SDS011;36026;45.478;9.224;2023-10-08T03:28:14;45.08;;;28.95;;
50128;SDS011;36026;45.478;9.224;2023-10-08T03:31:16;44.38;;;29.05;;
50128;SDS011;36026;45.478;9.224;2023-10-08T03:34:20;50.42;;;30.05;;
50128;SDS011;36026;45.478;9.224;2023-10-08T03:37:27;42.95;;;29.48;;
50128;SDS011;36026;45.478;9.224;2023-10-08T03:40:31;43.33;;;29.35;;
50128;SDS011;36026;45.478;9.224;2023-10-08T03:43:43;43.40;;;28.67;;
50128;SDS011;36026;45.478;9.224;2023-10-08T03:46:52;47.15;;;29.63;;
50128;SDS011;36026;45.478;9.224;2023-10-08T03:49:57;45.92;;;29.55;;
50128;SDS011;36026;45.478;9.224;2023-10-08T03:53:05;46.33;;;30.25;;
50128;SDS011;36026;45.478;9.224;2023-10-08T03:56:13;45.95;;;30.02;;
50128;SDS011;36026;45.478;9.224;2023-10-08T03:59:15;44.25;;;29.02;;
50128;SDS011;36026;45.478;9.224;2023-10-08T04:02:20;45.42;;;30.15;;
50128;SDS011;36026;45.478;9.224;2023-10-08T04:05:33;45.70;;;29.80;;
50128;SDS011;36026;45.478;9.224;2023-10-08T04:08:45;46.70;;;28.70;;
50128;SDS011;36026;45.478;9.224;2023-10-08T04:11:59;51.40;;;31.33;;
50128;SDS011;36026;45.478;9.224;2023-10-08T04:15:10;45.03;;;28.92;;
50128;SDS011;36026;45.478;9.224;2023-10-08T04:18:16;47.35;;;28.55;;
50128;SDS011;36026;45.478;9.224;2023-10-08T04:21:21;44.55;;;27.38;;
50128;SDS011;36026;45.478;9.224;2023-10-08T04:24:27;44.85;;;28.67;;
50128;SDS011;36026;45.478;9.224;2023-10-08T04:27:35;43.28;;;27.55;;
50128;SDS011;36026;45.478;9.224;2023-10-08T04:30:37;42.72;;;26.38;;
50128;SDS011;36026;45.478;9.224;2023-10-08T04:33:41;40.67;;;26.80;;
50128;SDS011;36026;45.478;9.224;2023-10-08T04:36:44;34.83;;;24.92;;
50128;SDS011;36026;45.478;9.224;2023-10-08T04:39:46;36.83;;;24.20;;
50128;SDS011;36026;45.478;9.224;2023-10-08T04:42:56;36.80;;;25.20;;
50128;SDS011;36026;45.478;9.224;2023-10-08T04:46:02;36.83;;;24.83;;
50128;SDS011;36026;45.478;9.224;2023-10-08T04:49:05;37.75;;;24.42;;
50128;SDS011;36026;45.478;9.224;2023-10-08T04:52:19;39.78;;;26.13;;
50128;SDS011;36026;45.478;9.224;2023-10-08T04:55:25;42.17;;;25.48;;
50128;SDS011;36026;45.478;9.224;2023-10-08T04:58:30;36.53;;;25.45;;
50128;SDS011;36026;45.478;9.224;2023-10-08T05:01:36;38.47;;;26.10;;
50128;SDS011;36026;45.478;9.224;2023-10-08T05:04:48;38.55;;;24.95;;
50128;SDS011;36026;45.478;9.224;2023-10-08T05:08:22;37.15;;;24.38;;
50128;SDS011;36026;45.478;9.224;2023-10-08T05:11:33;35.78;;;23.52;;
50128;SDS011;36026;45.478;9.224;2023-10-08T05:14:48;39.47;;;21.55;;
50128;SDS011;36026;45.478;9.224;2023-10-08T05:18:16;31.60;;;21.00;;
50128;SDS011;36026;45.478;9.224;2023-10-08T05:21:38;31.00;;;19.77;;
50128;SDS011;36026;45.478;9.224;2023-10-08T05:24:51;27.90;;;18.23;;
50128;SDS011;36026;45.478;9.224;2023-10-08T05:28:07;28.60;;;17.50;;
50128;SDS011;36026;45.478;9.224;2023-10-08T05:31:13;29.88;;;17.00;;
50128;SDS011;36026;45.478;9.224;2023-10-08T05:34:36;28.20;;;16.60;;
50128;SDS011;36026;45.478;9.224;2023-10-08T05:37:50;24.23;;;15.15;;
50128;SDS011;36026;45.478;9.224;2023-10-08T05:41:13;23.80;;;14.90;;
50128;SDS011;36026;45.478;9.224;2023-10-08T05:44:38;23.60;;;15.55;;
50128;SDS011;36026;45.478;9.224;2023-10-08T05:47:41;23.25;;;14.32;;
50128;SDS011;36026;45.478;9.224;2023-10-08T05:51:06;23.85;;;14.32;;
50128;SDS011;36026;45.478;9.224;2023-10-08T05:54:14;20.40;;;13.80;;
50128;SDS011;36026;45.478;9.224;2023-10-08T05:57:36;26.45;;;13.55;;
50128;SDS011;36026;45.478;9.224;2023-10-08T06:00:39;28.38;;;13.73;;
50128;SDS011;36026;45.478;9.224;2023-10-08T06:03:56;20.35;;;12.90;;
50128;SDS011;36026;45.478;9.224;2023-10-08T06:07:20;17.63;;;11.38;;
50128;SDS011;36026;45.478;9.224;2023-10-08T06:10:33;17.52;;;11.60;;
50128;SDS011;36026;45.478;9.224;2023-10-08T06:13:44;17.58;;;10.68;;
50128;SDS011;36026;45.478;9.224;2023-10-08T06:16:52;18.35;;;11.07;;
50128;SDS011;36026;45.478;9.224;2023-10-08T06:20:14;17.88;;;10.98;;
50128;SDS011;36026;45.478;9.224;2023-10-08T06:23:17;16.77;;;9.82;;
50128;SDS011;36026;45.478;9.224;2023-10-08T06:26:19;17.25;;;9.75;;
50128;SDS011;36026;45.478;9.224;2023-10-08T06:29:24;15.88;;;9.35;;
50128;SDS011;36026;45.478;9.224;2023-10-08T06:32:29;16.75;;;9.43;;
50128;SDS011;36026;45.478;9.224;2023-10-08T06:35:32;13.30;;;9.10;;
50128;SDS011;36026;45.478;9.224;2023-10-08T06:38:34;21.77;;;9.68;;
50128;SDS011;36026;45.478;9.224;2023-10-08T06:41:36;15.23;;;9.07;;
50128;SDS011;36026;45.478;9.224;2023-10-08T06:44:38;18.38;;;8.80;;
50128;SDS011;36026;45.478;9.224;2023-10-08T06:47:42;15.57;;;8.30;;
50128;SDS011;36026;45.478;9.224;2023-10-08T06:50:47;18.73;;;8.35;;
50128;SDS011;36026;45.478;9.224;2023-10-08T06:53:49;13.75;;;8.40;;
50128;SDS011;36026;45.478;9.224;2023-10-08T06:56:51;14.55;;;8.52;;
50128;SDS011;36026;45.478;9.224;2023-10-08T06:59:53;16.67;;;8.48;;
50128;SDS011;36026;45.478;9.224;2023-10-08T07:02:55;20.40;;;8.75;;
50128;SDS011;36026;45.478;9.224;2023-10-08T07:05:58;17.95;;;8.23;;
50128;SDS011;36026;45.478;9.224;2023-10-08T07:09:01;18.83;;;9.18;;
50128;SDS011;36026;45.478;9.224;2023-10-08T07:12:05;15.23;;;7.60;;
50128;SDS011;36026;45.478;9.224;2023-10-08T07:15:14;14.25;;;7.47;;
50128;SDS011;36026;45.478;9.224;2023-10-08T07:18:23;13.10;;;7.20;;
50128;SDS011;36026;45.478;9.224;2023-10-08T07:21:27;13.93;;;7.40;;
50128;SDS011;36026;45.478;9.224;2023-10-08T07:24:29;17.27;;;6.57;;
50128;SDS011;36026;45.478;9.224;2023-10-08T07:27:34;12.95;;;6.40;;
50128;SDS011;36026;45.478;9.224;2023-10-08T07:30:37;15.30;;;6.57;;
50128;SDS011;36026;45.478;9.224;2023-10-08T07:33:44;11.73;;;6.25;;
50128;SDS011;36026;45.478;9.224;2023-10-08T07:36:49;10.98;;;6.45;;
50128;SDS011;36026;45.478;9.224;2023-10-08T07:39:51;14.48;;;7.10;;
50128;SDS011;36026;45.478;9.224;2023-10-08T07:45:56;14.32;;;7.55;;
50128;SDS011;36026;45.478;9.224;2023-10-08T07:48:58;15.45;;;7.45;;
50128;SDS011;36026;45.478;9.224;2023-10-08T07:52:01;13.88;;;6.50;;
50128;SDS011;36026;45.478;9.224;2023-10-08T07:55:05;13.40;;;6.53;;
50128;SDS011;36026;45.478;9.224;2023-10-08T07:58:08;16.88;;;7.68;;
50128;SDS011;36026;45.478;9.224;2023-10-08T08:01:11;14.77;;;6.40;;
50128;SDS011;36026;45.478;9.224;2023-10-08T08:04:14;10.90;;;6.07;;
50128;SDS011;36026;45.478;9.224;2023-10-08T08:07:24;11.77;;;5.40;;
50128;SDS011;36026;45.478;9.224;2023-10-08T08:10:26;10.65;;;4.70;;
50128;SDS011;36026;45.478;9.224;2023-10-08T08:13:27;12.38;;;5.57;;
50128;SDS011;36026;45.478;9.224;2023-10-08T08:16:29;16.40;;;5.43;;
50128;SDS011;36026;45.478;9.224;2023-10-08T08:19:31;12.23;;;5.20;;
50128;SDS011;36026;45.478;9.224;2023-10-08T08:22:35;12.25;;;5.28;;
50128;SDS011;36026;45.478;9.224;2023-10-08T08:25:41;7.97;;;4.90;;
50128;SDS011;36026;45.478;9.224;2023-10-08T08:28:57;15.45;;;5.05;;
50128;SDS011;36026;45.478;9.224;2023-10-08T08:32:00;11.93;;;5.35;;
50128;SDS011;36026;45.478;9.224;2023-10-08T08:35:05;14.57;;;5.20;;
50128;SDS011;36026;45.478;9.224;2023-10-08T08:41:12;13.45;;;5.50;;
50128;SDS011;36026;45.478;9.224;2023-10-08T08:44:18;10.85;;;5.20;;
50128;SDS011;36026;45.478;9.224;2023-10-08T08:47:20;13.23;;;5.67;;
50128;SDS011;36026;45.478;9.224;2023-10-08T08:50:25;11.18;;;5.80;;
50128;SDS011;36026;45.478;9.224;2023-10-08T08:53:28;12.93;;;5.95;;
50128;SDS011;36026;45.478;9.224;2023-10-08T08:56:30;13.20;;;6.18;;
50128;SDS011;36026;45.478;9.224;2023-10-08T08:59:32;14.93;;;7.05;;
50128;SDS011;36026;45.478;9.224;2023-10-08T09:02:37;14.77;;;6.10;;
50128;SDS011;36026;45.478;9.224;2023-10-08T09:05:38;10.13;;;5.95;;
50128;SDS011;36026;45.478;9.224;2023-10-08T09:08:42;16.00;;;5.87;;
50128;SDS011;36026;45.478;9.224;2023-10-08T09:11:45;17.00;;;6.40;;
50128;SDS011;36026;45.478;9.224;2023-10-08T09:14:47;20.23;;;6.35;;
50128;SDS011;36026;45.478;9.224;2023-10-08T09:17:49;12.65;;;6.07;;
50128;SDS011;36026;45.478;9.224;2023-10-08T09:20:51;14.45;;;6.97;;
50128;SDS011;36026;45.478;9.224;2023-10-08T09:23:56;15.98;;;7.55;;
50128;SDS011;36026;45.478;9.224;2023-10-08T09:30:01;18.67;;;8.68;;
50128;SDS011;36026;45.478;9.224;2023-10-08T09:33:09;18.95;;;8.40;;
50128;SDS011;36026;45.478;9.224;2023-10-08T09:36:12;13.82;;;6.40;;
50128;SDS011;36026;45.478;9.224;2023-10-08T09:39:19;14.80;;;8.38;;
50128;SDS011;36026;45.478;9.224;2023-10-08T09:42:25;15.38;;;9.25;;
50128;SDS011;36026;45.478;9.224;2023-10-08T09:45:27;20.95;;;10.52;;
50128;SDS011;36026;45.478;9.224;2023-10-08T09:48:30;14.68;;;9.10;;
50128;SDS011;36026;45.478;9.224;2023-10-08T09:51:32;19.50;;;10.20;;
50128;SDS011;36026;45.478;9.224;2023-10-08T09:54:42;17.88;;;10.13;;
50128;SDS011;36026;45.478;9.224;2023-10-08T09:57:47;19.95;;;9.88;;
50128;SDS011;36026;45.478;9.224;2023-10-08T10:00:51;20.77;;;9.30;;
50128;SDS011;36026;45.478;9.224;2023-10-08T10:06:55;14.63;;;9.77;;
50128;SDS011;36026;45.478;9.224;2023-10-08T10:10:00;16.77;;;9.88;;
50128;SDS011;36026;45.478;9.224;2023-10-08T10:13:02;15.60;;;9.70;;
50128;SDS011;36026;45.478;9.224;2023-10-08T10:16:05;14.68;;;8.10;;
50128;SDS011;36026;45.478;9.224;2023-10-08T10:19:08;19.98;;;9.55;;
50128;SDS011;36026;45.478;9.224;2023-10-08T10:22:26;14.77;;;8.80;;
50128;SDS011;36026;45.478;9.224;2023-10-08T10:25:35;17.58;;;9.57;;
50128;SDS011;36026;45.478;9.224;2023-10-08T10:28:42;15.80;;;7.70;;
50128;SDS011;36026;45.478;9.224;2023-10-08T10:31:45;14.13;;;8.60;;
50128;SDS011;36026;45.478;9.224;2023-10-08T10:34:47;14.50;;;7.97;;
50128;SDS011;36026;45.478;9.224;2023-10-08T10:37:52;16.98;;;7.78;;
50128;SDS011;36026;45.478;9.224;2023-10-08T10:40:57;18.63;;;8.90;;
50128;SDS011;36026;45.478;9.224;2023-10-08T10:43:58;16.73;;;8.82;;
50128;SDS011;36026;45.478;9.224;2023-10-08T10:47:08;19.73;;;8.93;;
50128;SDS011;36026;45.478;9.224;2023-10-08T10:50:27;14.48;;;9.40;;
50128;SDS011;36026;45.478;9.224;2023-10-08T10:53:31;16.45;;;9.77;;
50128;SDS011;36026;45.478;9.224;2023-10-08T10:56:35;22.40;;;10.67;;
50128;SDS011;36026;45.478;9.224;2023-10-08T10:59:42;15.80;;;9.77;;
50128;SDS011;36026;45.478;9.224;2023-10-08T11:02:53;16.50;;;10.00;;
50128;SDS011;36026;45.478;9.224;2023-10-08T11:06:00;19.40;;;9.48;;
50128;SDS011;36026;45.478;9.224;2023-10-08T11:09:06;15.65;;;9.98;;
50128;SDS011;36026;45.478;9.224;2023-10-08T11:12:15;12.90;;;8.70;;
50128;SDS011;36026;45.478;9.224;2023-10-08T11:15:23;19.42;;;10.32;;
50128;SDS011;36026;45.478;9.224;2023-10-08T11:18:25;17.02;;;10.45;;
50128;SDS011;36026;45.478;9.224;2023-10-08T11:21:29;18.73;;;9.90;;
50128;SDS011;36026;45.478;9.224;2023-10-08T11:24:34;17.10;;;9.70;;
50128;SDS011;36026;45.478;9.224;2023-10-08T11:27:38;19.02;;;10.65;;
50128;SDS011;36026;45.478;9.224;2023-10-08T11:30:46;14.80;;;9.35;;
50128;SDS011;36026;45.478;9.224;2023-10-08T11:33:51;15.10;;;8.52;;
50128;SDS011;36026;45.478;9.224;2023-10-08T11:36:55;15.55;;;8.20;;
50128;SDS011;36026;45.478;9.224;2023-10-08T11:39:56;16.25;;;7.03;;
50128;SDS011;36026;45.478;9.224;2023-10-08T11:43:19;15.98;;;9.27;;
50128;SDS011;36026;45.478;9.224;2023-10-08T11:46:21;17.27;;;10.00;;
50128;SDS011;36026;45.478;9.224;2023-10-08T11:49:25;16.33;;;8.68;;
50128;SDS011;36026;45.478;9.224;2023-10-08T11:52:27;13.93;;;8.60;;
50128;SDS011;36026;45.478;9.224;2023-10-08T11:55:29;13.23;;;8.07;;
50128;SDS011;36026;45.478;9.224;2023-10-08T11:58:36;13.23;;;7.75;;
50128;SDS011;36026;45.478;9.224;2023-10-08T12:01:38;16.85;;;8.02;;
50128;SDS011;36026;45.478;9.224;2023-10-08T12:04:42;19.38;;;8.55;;
50128;SDS011;36026;45.478;9.224;2023-10-08T12:10:47;14.43;;;7.90;;
50128;SDS011;36026;45.478;9.224;2023-10-08T12:13:55;16.30;;;7.78;;
50128;SDS011;36026;45.478;9.224;2023-10-08T12:16:57;13.05;;;8.30;;
50128;SDS011;36026;45.478;9.224;2023-10-08T12:20:00;15.57;;;7.85;;
50128;SDS011;36026;45.478;9.224;2023-10-08T12:23:12;15.13;;;7.35;;
50128;SDS011;36026;45.478;9.224;2023-10-08T12:26:24;14.30;;;7.20;;
50128;SDS011;36026;45.478;9.224;2023-10-08T12:29:27;14.77;;;7.38;;
50128;SDS011;36026;45.478;9.224;2023-10-08T12:32:32;12.05;;;7.22;;
50128;SDS011;36026;45.478;9.224;2023-10-08T12:35:36;13.93;;;7.70;;
50128;SDS011;36026;45.478;9.224;2023-10-08T12:38:38;16.20;;;7.45;;
50128;SDS011;36026;45.478;9.224;2023-10-08T12:41:41;14.00;;;6.90;;
50128;SDS011;36026;45.478;9.224;2023-10-08T12:44:45;23.10;;;7.32;;
50128;SDS011;36026;45.478;9.224;2023-10-08T12:47:48;14.52;;;7.20;;
50128;SDS011;36026;45.478;9.224;2023-10-08T12:53:56;13.25;;;7.03;;
50128;SDS011;36026;45.478;9.224;2023-10-08T12:57:04;15.73;;;7.00;;
50128;SDS011;36026;45.478;9.224;2023-10-08T13:00:11;14.68;;;6.93;;
50128;SDS011;36026;45.478;9.224;2023-10-08T13:03:17;15.57;;;7.03;;
50128;SDS011;36026;45.478;9.224;2023-10-08T13:06:23;19.27;;;6.47;;
50128;SDS011;36026;45.478;9.224;2023-10-08T13:09:28;12.05;;;5.70;;
50128;SDS011;36026;45.478;9.224;2023-10-08T13:12:31;12.70;;;5.80;;
50128;SDS011;36026;45.478;9.224;2023-10-08T13:15:34;12.30;;;5.32;;
50128;SDS011;36026;45.478;9.224;2023-10-08T13:18:35;15.27;;;5.55;;
50128;SDS011;36026;45.478;9.224;2023-10-08T13:21:38;11.70;;;5.25;;
50128;SDS011;36026;45.478;9.224;2023-10-08T13:24:40;13.88;;;4.82;;
50128;SDS011;36026;45.478;9.224;2023-10-08T13:27:41;13.55;;;4.88;;
50128;SDS011;36026;45.478;9.224;2023-10-08T13:30:45;11.50;;;4.95;;
50128;SDS011;36026;45.478;9.224;2023-10-08T13:33:47;13.23;;;4.43;;
50128;SDS011;36026;45.478;9.224;2023-10-08T13:36:52;10.60;;;4.38;;
50128;SDS011;36026;45.478;9.224;2023-10-08T13:39:53;10.60;;;4.25;;
50128;SDS011;36026;45.478;9.224;2023-10-08T13:42:55;13.48;;;4.43;;
50128;SDS011;36026;45.478;9.224;2023-10-08T13:45:58;12.82;;;4.50;;
50128;SDS011;36026;45.478;9.224;2023-10-08T13:49:04;15.75;;;4.30;;
50128;SDS011;36026;45.478;9.224;2023-10-08T13:52:08;10.57;;;4.05;;
50128;SDS011;36026;45.478;9.224;2023-10-08T13:55:10;11.82;;;4.20;;
50128;SDS011;36026;45.478;9.224;2023-10-08T13:58:13;18.98;;;4.85;;
50128;SDS011;36026;45.478;9.224;2023-10-08T14:01:17;14.90;;;4.43;;
50128;SDS011;36026;45.478;9.224;2023-10-08T14:04:22;14.20;;;3.70;;
50128;SDS011;36026;45.478;9.224;2023-10-08T14:07:30;11.45;;;3.38;;
50128;SDS011;36026;45.478;9.224;2023-10-08T14:10:31;10.02;;;3.72;;
50128;SDS011;36026;45.478;9.224;2023-10-08T14:13:33;15.07;;;3.85;;
50128;SDS011;36026;45.478;9.224;2023-10-08T14:16:38;13.90;;;4.32;;
50128;SDS011;36026;45.478;9.224;2023-10-08T14:19:42;11.75;;;3.83;;
50128;SDS011;36026;45.478;9.224;2023-10-08T14:22:51;12.95;;;4.50;;
50128;SDS011;36026;45.478;9.224;2023-10-08T14:25:57;12.48;;;3.00;;
50128;SDS011;36026;45.478;9.224;2023-10-08T14:29:03;9.30;;;2.95;;
50128;SDS011;36026;45.478;9.224;2023-10-08T14:32:12;11.07;;;2.97;;
50128;SDS011;36026;45.478;9.224;2023-10-08T14:35:15;14.52;;;3.35;;
50128;SDS011;36026;45.478;9.224;2023-10-08T14:38:34;12.23;;;3.25;;
50128;SDS011;36026;45.478;9.224;2023-10-08T14:41:56;16.00;;;3.97;;
50128;SDS011;36026;45.478;9.224;2023-10-08T14:45:15;12.63;;;3.60;;
50128;SDS011;36026;45.478;9.224;2023-10-08T14:48:20;11.63;;;3.08;;
50128;SDS011;36026;45.478;9.224;2023-10-08T14:51:22;15.15;;;4.20;;
50128;SDS011;36026;45.478;9.224;2023-10-08T14:57:26;13.93;;;4.47;;
50128;SDS011;36026;45.478;9.224;2023-10-08T15:00:27;12.93;;;3.60;;
50128;SDS011;36026;45.478;9.224;2023-10-08T15:03:33;13.18;;;3.95;;
50128;SDS011;36026;45.478;9.224;2023-10-08T15:06:37;17.90;;;4.55;;
50128;SDS011;36026;45.478;9.224;2023-10-08T15:09:39;10.68;;;4.40;;
50128;SDS011;36026;45.478;9.224;2023-10-08T15:15:43;11.10;;;4.20;;
50128;SDS011;36026;45.478;9.224;2023-10-08T15:18:46;13.15;;;4.05;;
50128;SDS011;36026;45.478;9.224;2023-10-08T15:21:47;13.65;;;4.00;;
50128;SDS011;36026;45.478;9.224;2023-10-08T15:24:51;15.43;;;4.05;;
50128;SDS011;36026;45.478;9.224;2023-10-08T15:27:53;10.05;;;4.47;;
50128;SDS011;36026;45.478;9.224;2023-10-08T15:30:54;12.80;;;4.15;;
50128;SDS011;36026;45.478;9.224;2023-10-08T15:33:58;11.50;;;4.03;;
50128;SDS011;36026;45.478;9.224;2023-10-08T15:36:59;13.02;;;3.95;;
50128;SDS011;36026;45.478;9.224;2023-10-08T15:40:01;16.75;;;4.82;;
50128;SDS011;36026;45.478;9.224;2023-10-08T15:43:06;18.67;;;4.40;;
50128;SDS011;36026;45.478;9.224;2023-10-08T15:46:08;10.50;;;3.70;;
50128;SDS011;36026;45.478;9.224;2023-10-08T15:49:11;10.85;;;4.10;;
50128;SDS011;36026;45.478;9.224;2023-10-08T15:52:12;12.82;;;3.95;;
50128;SDS011;36026;45.478;9.224;2023-10-08T15:55:16;9.30;;;3.92;;
50128;SDS011;36026;45.478;9.224;2023-10-08T15:58:22;13.82;;;4.45;;
50128;SDS011;36026;45.478;9.224;2023-10-08T16:01:23;8.68;;;4.38;;
50128;SDS011;36026;45.478;9.224;2023-10-08T16:04:27;9.90;;;4.47;;
50128;SDS011;36026;45.478;9.224;2023-10-08T16:07:29;12.57;;;4.50;;
50128;SDS011;36026;45.478;9.224;2023-10-08T16:10:31;15.63;;;4.40;;
50128;SDS011;36026;45.478;9.224;2023-10-08T16:13:32;12.43;;;4.50;;
50128;SDS011;36026;45.478;9.224;2023-10-08T16:16:34;11.00;;;4.65;;
50128;SDS011;36026;45.478;9.224;2023-10-08T16:19:38;12.30;;;4.85;;
50128;SDS011;36026;45.478;9.224;2023-10-08T16:22:40;16.40;;;4.70;;
50128;SDS011;36026;45.478;9.224;2023-10-08T16:25:42;11.35;;;4.60;;
50128;SDS011;36026;45.478;9.224;2023-10-08T16:28:44;22.60;;;4.97;;
50128;SDS011;36026;45.478;9.224;2023-10-08T16:31:45;11.63;;;4.33;;
50128;SDS011;36026;45.478;9.224;2023-10-08T16:34:49;13.57;;;4.95;;
50128;SDS011;36026;45.478;9.224;2023-10-08T16:37:51;11.43;;;4.75;;
50128;SDS011;36026;45.478;9.224;2023-10-08T16:40:53;15.25;;;5.43;;
50128;SDS011;36026;45.478;9.224;2023-10-08T16:43:54;16.27;;;5.63;;
50128;SDS011;36026;45.478;9.224;2023-10-08T16:46:56;15.05;;;5.38;;
50128;SDS011;36026;45.478;9.224;2023-10-08T16:49:59;12.70;;;5.20;;
50128;SDS011;36026;45.478;9.224;2023-10-08T16:53:01;14.55;;;6.22;;
50128;SDS011;36026;45.478;9.224;2023-10-08T16:56:03;11.53;;;4.83;;
50128;SDS011;36026;45.478;9.224;2023-10-08T16:59:06;18.48;;;5.28;;
50128;SDS011;36026;45.478;9.224;2023-10-08T17:02:10;11.57;;;4.93;;
50128;SDS011;36026;45.478;9.224;2023-10-08T17:05:13;17.90;;;6.00;;
50128;SDS011;36026;45.478;9.224;2023-10-08T17:08:15;17.98;;;6.38;;
50128;SDS011;36026;45.478;9.224;2023-10-08T17:11:18;11.80;;;5.82;;
50128;SDS011;36026;45.478;9.224;2023-10-08T17:14:20;14.77;;;6.15;;
50128;SDS011;36026;45.478;9.224;2023-10-08T17:17:22;14.30;;;5.60;;
50128;SDS011;36026;45.478;9.224;2023-10-08T17:20:26;21.23;;;5.97;;
50128;SDS011;36026;45.478;9.224;2023-10-08T17:23:28;12.77;;;5.82;;
50128;SDS011;36026;45.478;9.224;2023-10-08T17:26:29;14.43;;;5.97;;
50128;SDS011;36026;45.478;9.224;2023-10-08T17:29:32;14.93;;;6.43;;
50128;SDS011;36026;45.478;9.224;2023-10-08T17:32:33;15.43;;;6.70;;
50128;SDS011;36026;45.478;9.224;2023-10-08T17:35:37;15.73;;;6.07;;
50128;SDS011;36026;45.478;9.224;2023-10-08T17:38:38;19.05;;;6.72;;
50128;SDS011;36026;45.478;9.224;2023-10-08T17:41:40;14.73;;;5.93;;
50128;SDS011;36026;45.478;9.224;2023-10-08T17:44:42;15.70;;;6.05;;
50128;SDS011;36026;45.478;9.224;2023-10-08T17:47:45;13.77;;;5.82;;
50128;SDS011;36026;45.478;9.224;2023-10-08T17:50:49;21.50;;;5.65;;
50128;SDS011;36026;45.478;9.224;2023-10-08T17:53:51;11.90;;;5.25;;
50128;SDS011;36026;45.478;9.224;2023-10-08T17:56:53;14.17;;;4.67;;
50128;SDS011;36026;45.478;9.224;2023-10-08T17:59:55;14.30;;;5.72;;
50128;SDS011;36026;45.478;9.224;2023-10-08T18:02:57;14.63;;;4.95;;
50128;SDS011;36026;45.478;9.224;2023-10-08T18:06:00;15.38;;;4.93;;
50128;SDS011;36026;45.478;9.224;2023-10-08T18:09:04;11.38;;;5.35;;
50128;SDS011;36026;45.478;9.224;2023-10-08T18:12:09;15.13;;;5.15;;
50128;SDS011;36026;45.478;9.224;2023-10-08T18:15:11;10.30;;;4.13;;
50128;SDS011;36026;45.478;9.224;2023-10-08T18:18:15;14.07;;;4.65;;
50128;SDS011;36026;45.478;9.224;2023-10-08T18:21:18;13.50;;;4.18;;
50128;SDS011;36026;45.478;9.224;2023-10-08T18:24:22;12.23;;;4.55;;
50128;SDS011;36026;45.478;9.224;2023-10-08T18:27:28;16.17;;;4.30;;
50128;SDS011;36026;45.478;9.224;2023-10-08T18:30:29;14.60;;;4.27;;
50128;SDS011;36026;45.478;9.224;2023-10-08T18:33:32;13.00;;;4.30;;
50128;SDS011;36026;45.478;9.224;2023-10-08T18:36:36;41.55;;;5.72;;
50128;SDS011;36026;45.478;9.224;2023-10-08T18:39:38;21.60;;;4.38;;
50128;SDS011;36026;45.478;9.224;2023-10-08T18:42:43;13.98;;;5.10;;
50128;SDS011;36026;45.478;9.224;2023-10-08T18:45:47;14.43;;;4.40;;